Ft Sturla — IBXV — position and weather

sailwx.info

Track history (hours):
 
Tides and Currents Weather Stations Pressure Air Temp Water Temp Dewpoint Dewpoint Depression Visibility Wind Speed Wind Dir Waves Ship Positions

Ft Sturla

Last reported at 2015-May-28 11:33 UTC. Time now 2015-May-28 12:04 UTC.
Position N 34°45' E 034°11'.

Length 120 m; draft 6.9 m.

Type: Ship (hazmat cat C). MMSI: 247282200.

Date/timePositionNaut miles runAvg speedWind from/ knotsBaromVisibWave heightAir tempDewpointWater temp
2015-May-28 11:33N 34°45' E 034°11'1 1.5
2015-May-28 10:33N 34°45' E 034°09'2 1.6
2015-May-28 09:33N 34°45' E 034°07'1 1.4
2015-May-28 08:33N 34°44' E 034°05'1 1.2
2015-May-28 07:33N 34°44' E 034°04'1 1.2
2015-May-28 06:33N 34°44' E 034°02'1 1.0
2015-May-28 05:33N 34°44' E 034°01'1 0.8
2015-May-28 04:15N 34°44' E 033°60'0 0.5
2015-May-28 03:34N 34°44' E 033°59'1 0.6
2015-May-28 02:34N 34°44' E 033°59'1 0.7
2015-May-28 01:33N 34°43' E 033°58'0 0.4
2015-May-28 00:33N 34°43' E 033°57'1 0.6
2015-May-27 23:33N 34°43' E 033°57'1 0.6
2015-May-27 22:33N 34°43' E 033°56'0 0.2
2015-May-27 21:33N 34°43' E 033°56'0 0.1
2015-May-27 20:33N 34°43' E 033°56'0 0.2
2015-May-27 19:34N 34°43' E 033°56'1 0.5
2015-May-27 18:33N 34°43' E 033°57'1 0.6
2015-May-27 17:34N 34°43' E 033°57'1 0.5
2015-May-27 16:34N 34°44' E 033°58'0 0.3
2015-May-27 15:33N 34°44' E 033°58'0 0.4
2015-May-27 14:33N 34°44' E 033°58'1 0.6
2015-May-27 13:33N 34°45' E 033°59'1 0.6
2015-May-27 12:22N 34°46' E 033°59'0 0.2
2015-May-27 11:34N 34°46' E 033°59'0 0.2
2015-May-27 10:34N 34°46' E 033°59'0 0.1
2015-May-27 09:33N 34°46' E 033°59'1 0.4
2015-May-27 08:21N 34°45' E 033°60'1 0.7
2015-May-27 07:33N 34°45' E 034°01'1 0.6
2015-May-27 06:30N 34°45' E 034°01'1 0.8
2015-May-27 05:33N 34°44' E 034°02'1 0.7
2015-May-27 04:05N 34°44' E 034°03'1 1.0
2015-May-27 03:33N 34°43' E 034°03'1 0.9
2015-May-27 02:24N 34°43' E 034°04'1 0.7
2015-May-27 01:18N 34°43' E 034°05'0 0.3
2015-May-27 00:34N 34°43' E 034°06'0 0.2
2015-May-26 23:32N 34°43' E 034°06'0 0.2
2015-May-26 21:33N 34°43' E 034°05'2 0.5
2015-May-26 18:27N 34°43' E 034°03'1 0.9
2015-May-26 17:33N 34°43' E 034°02'1 1.1
2015-May-26 16:27N 34°43' E 034°01'1 1.0
2015-May-26 15:25N 34°42' E 033°60'2 1.1
2015-May-26 13:33N 34°41' E 033°58'1 1.1
2015-May-26 12:33N 34°40' E 033°56'1 1.3
2015-May-26 11:33N 34°40' E 033°55'2 1.2
2015-May-26 10:18N 34°39' E 033°53'1 1.1
2015-May-26 09:33N 34°39' E 033°52'1 1.0
2015-May-26 08:33N 34°39' E 033°51'1 0.7
2015-May-26 07:16N 34°38' E 033°50'6 0.6
2015-May-25 21:33N 34°37' E 033°43'1 1.4
2015-May-25 20:33N 34°37' E 033°41'1 1.2
2015-May-25 19:33N 34°37' E 033°40'1 1.1
2015-May-25 18:34N 34°36' E 033°39'1 1.1
2015-May-25 17:34N 34°36' E 033°38'1 1.0
2015-May-25 16:33N 34°35' E 033°36'1 1.0
2015-May-25 15:33N 34°35' E 033°35'0 0.2
2015-May-25 14:33N 34°35' E 033°35'9 9.5
2015-May-25 13:33N 34°38' E 033°46'1 0.4
2015-May-25 12:12N 34°37' E 033°46'1 0.8
2015-May-25 11:33N 34°37' E 033°46'1 0.6
2015-May-25 10:26N 34°37' E 033°45'0 0.3
2015-May-25 09:32N 34°36' E 033°45'0 0.3
2015-May-25 08:33N 34°36' E 033°45'0 0.4
2015-May-25 07:33N 34°36' E 033°44'0 0.5
2015-May-25 06:33N 34°36' E 033°44'0 0.5
2015-May-25 05:33N 34°36' E 033°43'0 0.4
2015-May-25 04:28N 34°36' E 033°42'1 0.3
2015-May-25 01:06N 34°36' E 033°41'1 0.3
2015-May-24 22:21N 34°35' E 033°40'0 0.5
2015-May-24 21:33N 34°35' E 033°40'0 0.4
2015-May-24 20:28N 34°34' E 033°40'0 0.4
2015-May-24 19:33N 34°34' E 033°40'0 0.4
2015-May-24 18:34N 34°34' E 033°40'0 0.3
2015-May-24 17:33N 34°33' E 033°40'0 0.3
2015-May-24 16:34N 34°33' E 033°40'0 0.3
2015-May-24 15:34N 34°33' E 033°40'0 0.3
2015-May-24 14:32N 34°33' E 033°40'0 0.5
2015-May-24 13:33N 34°32' E 033°39'1 0.6
2015-May-24 12:33N 34°32' E 033°39'0 0.5
2015-May-24 11:34N 34°32' E 033°38'0 0.5
2015-May-24 10:33N 34°32' E 033°38'1 0.5
2015-May-24 09:33N 34°31' E 033°37'1 0.6
2015-May-24 08:34N 34°31' E 033°36'1 0.6
2015-May-24 07:33N 34°31' E 033°36'1 0.7
2015-May-24 06:34N 34°30' E 033°35'1 0.7
2015-May-24 05:33N 34°30' E 033°35'1 0.8
2015-May-24 04:33N 34°29' E 033°34'1 0.9
2015-May-24 03:33N 34°28' E 033°34'1 0.7
2015-May-24 02:28N 34°28' E 033°33'0 0.5
2015-May-24 01:29N 34°27' E 033°33'1 0.5
2015-May-24 00:31N 34°27' E 033°33'1 0.5
2015-May-23 23:24N 34°26' E 033°33'0 0.5
2015-May-23 22:33N 34°26' E 033°32'1 0.5
2015-May-23 21:30N 34°26' E 033°32'0 0.4
2015-May-23 20:33N 34°25' E 033°32'0 0.5
2015-May-23 19:34N 34°25' E 033°31'1 0.6
2015-May-23 18:34N 34°25' E 033°31'1 0.8
2015-May-23 17:34N 34°25' E 033°30'1 1.0
2015-May-23 16:34N 34°26' E 033°28'1 1.1
2015-May-23 15:33N 34°26' E 033°27'1 1.1
2015-May-23 14:34N 34°26' E 033°26'1 1.0
2015-May-23 13:33N 34°26' E 033°25'1 1.1
2015-May-23 12:33N 34°26' E 033°23'1 1.1
2015-May-23 11:33N 34°26' E 033°22'1 1.1
2015-May-23 10:32N 34°26' E 033°21'1 0.9
2015-May-23 09:33N 34°27' E 033°20'1 1.0
2015-May-23 08:33N 34°27' E 033°18'1 0.9
2015-May-23 07:33N 34°27' E 033°17'1 0.9
2015-May-23 06:32N 34°27' E 033°16'1 0.6
2015-May-23 05:33N 34°28' E 033°16'1 0.8
2015-May-23 04:33N 34°28' E 033°15'5 4.6
2015-May-23 03:26N 34°25' E 033°10'9 9.9
2015-May-23 02:34N 34°21' E 033°01'10 9.9
2015-May-23 01:33N 34°19' E 032°49'10 9.9
2015-May-23 00:33N 34°18' E 032°37'2310.2
2015-May-22 22:18N 34°18' E 032°09'7 9.9
2015-May-22 21:33N 34°18' E 032°00'12 9.6
2015-May-22 20:16N 34°18' E 031°45'7 9.8
2015-May-22 19:34N 34°18' E 031°37'1110.2
2015-May-22 18:31N 34°17' E 031°24'2210.0
2015-May-22 16:20N 34°20' E 030°58'  
2015-May-19 00:21N 39°04' E 019°34'1211.2
2015-May-18 23:16N 39°14' E 019°25'1111.4
2015-May-18 22:18N 39°25' E 019°20'911.6
2015-May-18 21:33N 39°33' E 019°17'1111.3
2015-May-18 20:34N 39°44' E 019°14'1111.2
2015-May-18 19:34N 39°55' E 019°10'1111.1
2015-May-18 18:33N 40°06' E 019°07'  
Track history (hours):
 
Tides and Currents Weather Stations Pressure Air Temp Water Temp Dewpoint Dewpoint Depression Visibility Wind Speed Wind Dir Waves Ship Positions

Ft Sturla

Last reported at 2015-May-28 11:33 UTC. Time now 2015-May-28 12:04 UTC.
Position N 34°45' E 034°11'.

Length 120 m; draft 6.9 m.

Type: Ship (hazmat cat C). MMSI: 247282200.

Date/timePositionNaut miles runAvg speedWind from/ knotsBaromVisibWave heightAir tempDewpointWater temp
2015-May-28 11:33N 34°45' E 034°11'1 1.5
2015-May-28 10:33N 34°45' E 034°09'2 1.6
2015-May-28 09:33N 34°45' E 034°07'1 1.4
2015-May-28 08:33N 34°44' E 034°05'1 1.2
2015-May-28 07:33N 34°44' E 034°04'1 1.2
2015-May-28 06:33N 34°44' E 034°02'1 1.0
2015-May-28 05:33N 34°44' E 034°01'1 0.8
2015-May-28 04:15N 34°44' E 033°60'0 0.5
2015-May-28 03:34N 34°44' E 033°59'1 0.6
2015-May-28 02:34N 34°44' E 033°59'1 0.7
2015-May-28 01:33N 34°43' E 033°58'0 0.4
2015-May-28 00:33N 34°43' E 033°57'1 0.6
2015-May-27 23:33N 34°43' E 033°57'1 0.6
2015-May-27 22:33N 34°43' E 033°56'0 0.2
2015-May-27 21:33N 34°43' E 033°56'0 0.1
2015-May-27 20:33N 34°43' E 033°56'0 0.2
2015-May-27 19:34N 34°43' E 033°56'1 0.5
2015-May-27 18:33N 34°43' E 033°57'1 0.6
2015-May-27 17:34N 34°43' E 033°57'1 0.5
2015-May-27 16:34N 34°44' E 033°58'0 0.3
2015-May-27 15:33N 34°44' E 033°58'0 0.4
2015-May-27 14:33N 34°44' E 033°58'1 0.6
2015-May-27 13:33N 34°45' E 033°59'1 0.6
2015-May-27 12:22N 34°46' E 033°59'0 0.2
2015-May-27 11:34N 34°46' E 033°59'0 0.2
2015-May-27 10:34N 34°46' E 033°59'0 0.1
2015-May-27 09:33N 34°46' E 033°59'1 0.4
2015-May-27 08:21N 34°45' E 033°60'1 0.7
2015-May-27 07:33N 34°45' E 034°01'1 0.6
2015-May-27 06:30N 34°45' E 034°01'1 0.8
2015-May-27 05:33N 34°44' E 034°02'1 0.7
2015-May-27 04:05N 34°44' E 034°03'1 1.0
2015-May-27 03:33N 34°43' E 034°03'1 0.9
2015-May-27 02:24N 34°43' E 034°04'1 0.7
2015-May-27 01:18N 34°43' E 034°05'0 0.3
2015-May-27 00:34N 34°43' E 034°06'0 0.2
2015-May-26 23:32N 34°43' E 034°06'0 0.2
2015-May-26 21:33N 34°43' E 034°05'2 0.5
2015-May-26 18:27N 34°43' E 034°03'1 0.9
2015-May-26 17:33N 34°43' E 034°02'1 1.1
2015-May-26 16:27N 34°43' E 034°01'1 1.0
2015-May-26 15:25N 34°42' E 033°60'2 1.1
2015-May-26 13:33N 34°41' E 033°58'1 1.1
2015-May-26 12:33N 34°40' E 033°56'1 1.3
2015-May-26 11:33N 34°40' E 033°55'2 1.2
2015-May-26 10:18N 34°39' E 033°53'1 1.1
2015-May-26 09:33N 34°39' E 033°52'1 1.0
2015-May-26 08:33N 34°39' E 033°51'1 0.7
2015-May-26 07:16N 34°38' E 033°50'6 0.6
2015-May-25 21:33N 34°37' E 033°43'1 1.4
2015-May-25 20:33N 34°37' E 033°41'1 1.2
2015-May-25 19:33N 34°37' E 033°40'1 1.1
2015-May-25 18:34N 34°36' E 033°39'1 1.1
2015-May-25 17:34N 34°36' E 033°38'1 1.0
2015-May-25 16:33N 34°35' E 033°36'1 1.0
2015-May-25 15:33N 34°35' E 033°35'0 0.2
2015-May-25 14:33N 34°35' E 033°35'9 9.5
2015-May-25 13:33N 34°38' E 033°46'1 0.4
2015-May-25 12:12N 34°37' E 033°46'1 0.8
2015-May-25 11:33N 34°37' E 033°46'1 0.6
2015-May-25 10:26N 34°37' E 033°45'0 0.3
2015-May-25 09:32N 34°36' E 033°45'0 0.3
2015-May-25 08:33N 34°36' E 033°45'0 0.4
2015-May-25 07:33N 34°36' E 033°44'0 0.5
2015-May-25 06:33N 34°36' E 033°44'0 0.5
2015-May-25 05:33N 34°36' E 033°43'0 0.4
2015-May-25 04:28N 34°36' E 033°42'1 0.3
2015-May-25 01:06N 34°36' E 033°41'1 0.3
2015-May-24 22:21N 34°35' E 033°40'0 0.5
2015-May-24 21:33N 34°35' E 033°40'0 0.4
2015-May-24 20:28N 34°34' E 033°40'0 0.4
2015-May-24 19:33N 34°34' E 033°40'0 0.4
2015-May-24 18:34N 34°34' E 033°40'0 0.3
2015-May-24 17:33N 34°33' E 033°40'0 0.3
2015-May-24 16:34N 34°33' E 033°40'0 0.3
2015-May-24 15:34N 34°33' E 033°40'0 0.3
2015-May-24 14:32N 34°33' E 033°40'0 0.5
2015-May-24 13:33N 34°32' E 033°39'1 0.6
2015-May-24 12:33N 34°32' E 033°39'0 0.5
2015-May-24 11:34N 34°32' E 033°38'0 0.5
2015-May-24 10:33N 34°32' E 033°38'1 0.5
2015-May-24 09:33N 34°31' E 033°37'1 0.6
2015-May-24 08:34N 34°31' E 033°36'1 0.6
2015-May-24 07:33N 34°31' E 033°36'1 0.7
2015-May-24 06:34N 34°30' E 033°35'1 0.7
2015-May-24 05:33N 34°30' E 033°35'1 0.8
2015-May-24 04:33N 34°29' E 033°34'1 0.9
2015-May-24 03:33N 34°28' E 033°34'1 0.7
2015-May-24 02:28N 34°28' E 033°33'0 0.5
2015-May-24 01:29N 34°27' E 033°33'1 0.5
2015-May-24 00:31N 34°27' E 033°33'1 0.5
2015-May-23 23:24N 34°26' E 033°33'0 0.5
2015-May-23 22:33N 34°26' E 033°32'1 0.5
2015-May-23 21:30N 34°26' E 033°32'0 0.4
2015-May-23 20:33N 34°25' E 033°32'0 0.5
2015-May-23 19:34N 34°25' E 033°31'1 0.6
2015-May-23 18:34N 34°25' E 033°31'1 0.8
2015-May-23 17:34N 34°25' E 033°30'1 1.0
2015-May-23 16:34N 34°26' E 033°28'1 1.1
2015-May-23 15:33N 34°26' E 033°27'1 1.1
2015-May-23 14:34N 34°26' E 033°26'1 1.0
2015-May-23 13:33N 34°26' E 033°25'1 1.1
2015-May-23 12:33N 34°26' E 033°23'1 1.1
2015-May-23 11:33N 34°26' E 033°22'1 1.1
2015-May-23 10:32N 34°26' E 033°21'1 0.9
2015-May-23 09:33N 34°27' E 033°20'1 1.0
2015-May-23 08:33N 34°27' E 033°18'1 0.9
2015-May-23 07:33N 34°27' E 033°17'1 0.9
2015-May-23 06:32N 34°27' E 033°16'1 0.6
2015-May-23 05:33N 34°28' E 033°16'1 0.8
2015-May-23 04:33N 34°28' E 033°15'5 4.6
2015-May-23 03:26N 34°25' E 033°10'9 9.9
2015-May-23 02:34N 34°21' E 033°01'10 9.9
2015-May-23 01:33N 34°19' E 032°49'10 9.9
2015-May-23 00:33N 34°18' E 032°37'2310.2
2015-May-22 22:18N 34°18' E 032°09'7 9.9
2015-May-22 21:33N 34°18' E 032°00'12 9.6
2015-May-22 20:16N 34°18' E 031°45'7 9.8
2015-May-22 19:34N 34°18' E 031°37'1110.2
2015-May-22 18:31N 34°17' E 031°24'2210.0
2015-May-22 16:20N 34°20' E 030°58'  
2015-May-19 00:21N 39°04' E 019°34'1211.2
2015-May-18 23:16N 39°14' E 019°25'1111.4
2015-May-18 22:18N 39°25' E 019°20'911.6
2015-May-18 21:33N 39°33' E 019°17'1111.3
2015-May-18 20:34N 39°44' E 019°14'1111.2
2015-May-18 19:34N 39°55' E 019°10'1111.1
2015-May-18 18:33N 40°06' E 019°07'  

Dump ship's entire track history